Wonder Lake, IL (60097)

8:47 PM CST on February 07, 2016 (GMT -0600)
Glacier Ridge - West Side | | Change Station
CLOSE
Current Station
Personal Weather Station
Location: McHenry, IL
Elevation: 925 ft
Nearby Weather Stations

Elev 925 ft 42.35 °N, 88.33 °W | Updated 43 seconds ago

Clear
Clear
34.3 °F
Feels Like 34 °F
N
0.0
Wind Variable Wind from SW
Gusts 0.0 mph

Today
High -- | Low -- °F
--% Chance of Precip.
Yesterday
High -- | Low -- °F
Precip. -- in
Pressure 29.69 in
Visibility 10.0 miles
Clouds Clear
Windchill 34 °F
Dew Point 18 °F
Humidity 52%
Rainfall 0.00 in
Snow Depth Not available.
7:00 AM 5:14 PM
Waning Crescent, 0% visible
METAR KBUU 080235Z AUTO 25006KT 10SM CLR 00/M03 A2969 RMK AO2 T00021031
Pressure 29.69 in
Visibility 10.0 miles
Clouds Clear
Windchill 34 °F
Dew Point 18 °F
Humidity 52%
Rainfall 0.00 in
Snow Depth Not available.
7:00 AM 5:14 PM
Waning Crescent, 0% visible
METAR KBUU 080235Z AUTO 25006KT 10SM CLR 00/M03 A2969 RMK AO2 T00021031

10-Day Weather Forecast

Almanac

Astronomy

Feb. 07, 2016 Rise Set
Actual Time
Civil Twilight
Nautical Twilight
Astronomical Twilight
Moon
Length of Visible Light
Length of Day
Tomorrow will be .
, % of the Moon is Illuminated

Today's Extremes

State Highs State Lows

Community

WunderPhotos

Upload Photos

1,891,373 photos uploaded!

WunderBlog® & News

Nearby

Air Quality

  Air Quality AQ Index Pollutant
Not available.

Snow Depth

Station Depth Elevation

Earthquake Activity

City Distance Mag. Time & Date
Minimum magnitude displayed is 2.5.

Coastal Water Temperatures

Place Temperature

Stations

Nearby Weather Stations

Station Location Temp. Windchill Dew Point Humidity Wind Precip. Elev Updated Type
                   

Watches & Warnings

There are currently no watches in effect.